createdAt,value
2018-04-01T00:00:02.271Z,91026.89
2018-04-01T00:02:28.348Z,91016.38
2018-04-01T00:04:54.465Z,91017.60
2018-04-01T00:07:20.560Z,91010.83
2018-04-01T00:09:46.584Z,91009.84
2018-04-01T00:12:12.725Z,91010.77
2018-04-01T00:14:38.777Z,91007.27
2018-04-01T00:17:04.793Z,90987.18
2018-04-01T00:19:30.812Z,90981.34
2018-04-01T00:21:56.943Z,90958.75
2018-04-01T00:24:22.929Z,90961.61
2018-04-01T00:26:49.270Z,90957.30
2018-04-01T00:29:15.296Z,90932.89
2018-04-01T00:31:41.339Z,90944.45
2018-04-01T00:34:07.565Z,90957.53
2018-04-01T00:36:33.580Z,90944.80
2018-04-01T00:38:59.642Z,90932.55
2018-04-01T00:41:25.773Z,90933.13
2018-04-01T00:43:51.799Z,90941.88
2018-04-01T00:46:17.880Z,90919.30
2018-04-01T00:48:43.967Z,90934.06
2018-04-01T00:51:10.093Z,90926.88
2018-04-01T00:53:36.107Z,90918.48
2018-04-01T00:56:02.140Z,90917.48
2018-04-01T00:58:28.168Z,90899.63
2018-04-01T01:00:54.281Z,90907.97
2018-04-01T01:03:20.293Z,90901.09
2018-04-01T01:05:46.296Z,90910.48
2018-04-01T01:08:12.353Z,90898.41
2018-04-01T01:10:38.366Z,90896.62
2018-04-01T01:13:04.387Z,90895.22
2018-04-01T01:15:30.525Z,90892.02
2018-04-01T01:17:56.684Z,90888.78
2018-04-01T01:20:22.911Z,90890.81
2018-04-01T01:22:48.915Z,90866.87
2018-04-01T01:25:14.984Z,90867.02
2018-04-01T01:27:41.004Z,90858.99
2018-04-01T01:30:07.081Z,90844.94
2018-04-01T01:32:33.142Z,90843.95
2018-04-01T01:34:59.162Z,90834.42
2018-04-01T01:37:25.205Z,90806.55
2018-04-01T01:39:51.539Z,90798.45
2018-04-01T01:42:17.661Z,90790.61
2018-04-01T01:44:43.736Z,90781.52
2018-04-01T01:47:10.108Z,90777.38
2018-04-01T01:49:36.145Z,90756.31
2018-04-01T01:52:02.252Z,90746.27
2018-04-01T01:54:28.329Z,90734.53
2018-04-01T01:56:54.484Z,90726.95
2018-04-01T01:59:20.555Z,90705.95
2018-04-01T02:01:46.575Z,90733.70
2018-04-01T02:04:12.666Z,90715.52
2018-04-01T02:06:38.776Z,90752.21
2018-04-01T02:09:05.007Z,90727.13
2018-04-01T02:11:31.101Z,90719.22
2018-04-01T02:13:57.278Z,90707.70
2018-04-01T02:16:23.367Z,90737.98
2018-04-01T02:18:49.420Z,90719.55
2018-04-01T02:21:15.490Z,90714.75
2018-04-01T02:23:41.549Z,90722.94
2018-04-01T02:26:07.720Z,90704.42
2018-04-01T02:28:33.834Z,90724.31
2018-04-01T02:30:59.840Z,90709.08
2018-04-01T02:33:25.963Z,90728.48
2018-04-01T02:35:51.973Z,90731.08
2018-04-01T02:38:17.993Z,90735.51
2018-04-01T02:40:44.028Z,90730.29
2018-04-01T02:43:10.151Z,90741.05
2018-04-01T02:45:36.214Z,90742.77
2018-04-01T02:48:02.493Z,90736.47
2018-04-01T02:50:28.534Z,90734.83
2018-04-01T02:52:54.651Z,90738.44
2018-04-01T02:55:20.673Z,90742.16
2018-04-01T02:57:46.694Z,90740.33
2018-04-01T03:00:12.841Z,90724.15
2018-04-01T03:02:38.940Z,90750.48
2018-04-01T03:05:04.962Z,90708.78
2018-04-01T03:07:31.024Z,90702.87
2018-04-01T03:09:57.033Z,90722.23
2018-04-01T03:12:23.095Z,90724.94
2018-04-01T03:14:49.269Z,90726.28
2018-04-01T03:17:15.402Z,90720.15
2018-04-01T03:19:41.429Z,90700.22
2018-04-01T03:22:07.523Z,90703.91
2018-04-01T03:24:33.547Z,90700.22
2018-04-01T03:26:59.559Z,90704.91
2018-04-01T03:29:25.635Z,90689.77
2018-04-01T03:31:51.661Z,90676.92
2018-04-01T03:34:17.671Z,90673.14
2018-04-01T03:36:43.766Z,90685.68
2018-04-01T03:39:09.883Z,90664.63
2018-04-01T03:41:35.933Z,90688.73
2018-04-01T03:44:01.944Z,90678.11
2018-04-01T03:46:28.252Z,90689.26
2018-04-01T03:48:54.329Z,90652.55
2018-04-01T03:51:20.396Z,90646.55
2018-04-01T03:53:46.430Z,90682.96
2018-04-01T03:56:12.452Z,90700.99
2018-04-01T03:58:38.594Z,90679.83
2018-04-01T04:01:04.717Z,90684.27
2018-04-01T04:03:30.781Z,90687.39
2018-04-01T04:05:56.946Z,90689.89
2018-04-01T04:08:22.965Z,90689.10
2018-04-01T04:10:49.211Z,90675.07
2018-04-01T04:13:15.303Z,90651.58
2018-04-01T04:15:41.316Z,90661.13
2018-04-01T04:18:07.445Z,90666.19
2018-04-01T04:20:33.596Z,90664.64
2018-04-01T04:22:59.712Z,90670.83
2018-04-01T04:25:25.837Z,90670.38
2018-04-01T04:27:51.893Z,90634.45
2018-04-01T04:30:17.973Z,90662.88
2018-04-01T04:32:44.041Z,90623.67
2018-04-01T04:35:10.077Z,90646.83
2018-04-01T04:37:36.148Z,90644.94
2018-04-01T04:40:02.201Z,90629.88
2018-04-01T04:42:28.298Z,90634.86
2018-04-01T04:44:54.436Z,90619.27
2018-04-01T04:47:20.472Z,90643.98
2018-04-01T04:49:46.805Z,90636.95
2018-04-01T04:52:12.867Z,90637.70
2018-04-01T04:54:38.932Z,90634.06
2018-04-01T04:57:05.013Z,90613.48
2018-04-01T04:59:31.025Z,90622.86
2018-04-01T05:01:57.051Z,90649.46
2018-04-01T05:04:23.149Z,90622.96
2018-04-01T05:06:49.213Z,90664.16
2018-04-01T05:09:15.312Z,90742.99
2018-04-01T05:11:41.464Z,90769.63
2018-04-01T05:14:07.510Z,90768.70
2018-04-01T05:16:33.582Z,90755.75
2018-04-01T05:19:03.061Z,90777.52
2018-04-01T05:21:29.177Z,90828.19
2018-04-01T05:23:55.372Z,90804.23
2018-04-01T05:26:21.517Z,90761.53
2018-04-01T05:28:47.582Z,90751.20
2018-04-01T05:31:13.606Z,90775.98
2018-04-01T05:33:39.785Z,90831.49
2018-04-01T05:36:05.834Z,90847.42
2018-04-01T05:38:31.865Z,90835.61
2018-04-01T05:40:58.018Z,90822.21
2018-04-01T05:43:26.605Z,90819.68
2018-04-01T05:45:52.694Z,90844.22
2018-04-01T05:48:18.777Z,90847.27
2018-04-01T05:50:44.866Z,90862.88
2018-04-01T05:53:11.008Z,90839.88
2018-04-01T05:55:37.070Z,90843.06
2018-04-01T05:58:03.134Z,90845.45
2018-04-01T06:00:32.217Z,90840.27
2018-04-01T06:02:58.245Z,90819.99
2018-04-01T06:05:24.269Z,90836.38
2018-04-01T06:07:50.324Z,90853.16
2018-04-01T06:10:16.348Z,90831.59
2018-04-01T06:12:42.414Z,90849.38
2018-04-01T06:15:08.756Z,90863.34
2018-04-01T06:17:34.779Z,90849.16
2018-04-01T06:20:00.879Z,90844.91
2018-04-01T06:22:27.005Z,90847.41
2018-04-01T06:24:53.021Z,90853.80
2018-04-01T06:27:19.092Z,90852.00
2018-04-01T06:29:45.124Z,90846.16
2018-04-01T06:32:11.149Z,90850.98
2018-04-01T06:34:37.341Z,90869.54
2018-04-01T06:37:03.364Z,90868.61
2018-04-01T06:39:29.420Z,90862.90
2018-04-01T06:41:55.517Z,90870.99
2018-04-01T06:44:21.544Z,90898.58
2018-04-01T06:46:47.592Z,90900.67
2018-04-01T06:49:13.617Z,90923.84
2018-04-01T06:51:39.620Z,90936.62
2018-04-01T06:54:05.973Z,90941.59
2018-04-01T06:56:32.065Z,90940.48
2018-04-01T06:58:58.093Z,90943.00
2018-04-01T07:01:24.171Z,90956.39
2018-04-01T07:03:50.209Z,90949.23
2018-04-01T07:06:16.293Z,90958.39
2018-04-01T07:08:42.387Z,90974.87
2018-04-01T07:11:08.407Z,90985.73
2018-04-01T07:13:37.069Z,91008.57
2018-04-01T07:16:03.183Z,90982.39
2018-04-01T07:18:29.242Z,90976.62
2018-04-01T07:20:55.268Z,90964.76
2018-04-01T07:23:21.393Z,90940.36
2018-04-01T07:25:47.416Z,90927.04
2018-04-01T07:28:13.443Z,90930.92
2018-04-01T07:30:39.501Z,90920.55
2018-04-01T07:33:05.518Z,90912.11
2018-04-01T07:35:31.585Z,90903.13
2018-04-01T07:37:57.656Z,90900.31
2018-04-01T07:40:23.712Z,90893.56
2018-04-01T07:42:49.740Z,90895.16
2018-04-01T07:45:15.886Z,90895.01
2018-04-01T07:47:42.089Z,90880.55
2018-04-01T07:50:09.973Z,90869.94
2018-04-01T07:52:36.007Z,90865.06
2018-04-01T07:55:02.113Z,90852.64
2018-04-01T07:57:28.298Z,90846.22
2018-04-01T07:59:54.391Z,90825.53
2018-04-01T08:02:36.419Z,90828.26
2018-04-01T08:05:05.357Z,90842.00
2018-04-01T08:07:32.237Z,90849.38
2018-04-01T08:09:58.250Z,90851.38
2018-04-01T08:12:24.569Z,90864.23
2018-04-01T08:14:50.696Z,90878.48
2018-04-01T08:17:16.714Z,90880.22
2018-04-01T08:19:42.865Z,90882.34
2018-04-01T08:22:08.926Z,90876.63
2018-04-01T08:24:35.063Z,90875.62
2018-04-01T08:27:01.304Z,90881.66
2018-04-01T08:29:27.341Z,90885.94
2018-04-01T08:31:53.363Z,90878.53
2018-04-01T08:34:19.648Z,90875.89
2018-04-01T08:36:45.678Z,90880.69
2018-04-01T08:39:11.702Z,90876.38
2018-04-01T08:41:37.839Z,90869.13
2018-04-01T08:44:03.865Z,90881.20
2018-04-01T08:46:29.920Z,90877.61
2018-04-01T08:48:55.988Z,90874.09
2018-04-01T08:51:22.011Z,90875.33
2018-04-01T08:53:48.148Z,90877.87
2018-04-01T08:56:14.164Z,90888.93
2018-04-01T08:58:40.185Z,90881.87
2018-04-01T09:01:06.241Z,90878.56
2018-04-01T09:03:32.249Z,90876.34
2018-04-01T09:05:58.271Z,90869.50
2018-04-01T09:08:24.407Z,90861.39
2018-04-01T09:10:50.461Z,90860.52
2018-04-01T09:13:16.593Z,90864.34
2018-04-01T09:15:42.781Z,90851.34
2018-04-01T09:18:08.812Z,90846.27
2018-04-01T09:20:34.938Z,90837.47
2018-04-01T09:23:01.008Z,90852.47
2018-04-01T09:25:27.046Z,90838.87
2018-04-01T09:27:53.151Z,90860.28
2018-04-01T09:30:19.228Z,90850.47
2018-04-01T09:32:45.260Z,90848.38
2018-04-01T09:35:11.385Z,90855.45
2018-04-01T09:37:37.399Z,90850.16
2018-04-01T09:40:03.501Z,90855.41
2018-04-01T09:42:29.856Z,90850.69
2018-04-01T09:44:55.886Z,90829.04
2018-04-01T09:47:22.521Z,90836.96
2018-04-01T09:49:48.694Z,90835.12
2018-04-01T09:52:14.711Z,90831.66
2018-04-01T09:54:43.912Z,90843.38
2018-04-01T09:57:09.985Z,90829.66
2018-04-01T09:59:36.064Z,90824.73
2018-04-01T10:02:02.397Z,90834.20
2018-04-01T10:04:28.945Z,90821.58
2018-04-01T10:06:55.221Z,90832.70
2018-04-01T10:09:21.506Z,90837.47
2018-04-01T10:11:47.849Z,90848.56
2018-04-01T10:14:14.108Z,90843.64
2018-04-01T10:16:40.374Z,90840.88
2018-04-01T10:19:06.689Z,90830.97
2018-04-01T10:21:32.967Z,90836.51
2018-04-01T10:23:59.300Z,90835.91
2018-04-01T10:26:25.660Z,90822.56
2018-04-01T10:28:52.037Z,90836.41
2018-04-01T10:31:18.403Z,90836.84
2018-04-01T10:33:44.663Z,90828.46
2018-04-01T10:36:10.954Z,90829.14
2018-04-01T10:38:37.322Z,90835.55
2018-04-01T10:41:03.617Z,90828.64
2018-04-01T10:43:32.459Z,90835.09
2018-04-01T10:46:03.014Z,90825.47
2018-04-01T10:48:29.345Z,90826.92
2018-04-01T10:50:55.666Z,90834.02
2018-04-01T10:53:22.144Z,90830.34
2018-04-01T10:55:48.264Z,90835.22
2018-04-01T10:58:14.335Z,90842.59
2018-04-01T11:00:40.472Z,90836.69
2018-04-01T11:03:06.553Z,90826.14
2018-04-01T11:05:32.581Z,90829.71
2018-04-01T11:07:58.704Z,90818.59
2018-04-01T11:10:24.842Z,90819.91
2018-04-01T11:12:51.010Z,90817.48
2018-04-01T11:15:17.040Z,90801.39
2018-04-01T11:17:43.132Z,90810.23
2018-04-01T11:20:09.271Z,90794.11
2018-04-01T11:22:35.382Z,90790.62
2018-04-01T11:25:01.402Z,90777.34
2018-04-01T11:27:27.502Z,90777.13
2018-04-01T11:29:53.550Z,90773.09
2018-04-01T11:32:21.515Z,90768.70
2018-04-01T11:34:47.526Z,90753.72
2018-04-01T11:37:13.554Z,90755.44
2018-04-01T11:39:39.764Z,90760.41
2018-04-01T11:42:07.554Z,90795.98
2018-04-01T11:44:33.753Z,90798.43
2018-04-01T11:46:59.778Z,90791.05
2018-04-01T11:49:25.856Z,90789.27
2018-04-01T11:51:52.073Z,90790.53
2018-04-01T11:54:18.165Z,90787.41
2018-04-01T11:56:44.278Z,90791.16
2018-04-01T11:59:10.316Z,90771.31
2018-04-01T12:01:36.368Z,90763.19
2018-04-01T12:04:02.402Z,90767.98
2018-04-01T12:06:28.565Z,90777.98
2018-04-01T12:08:54.687Z,90778.99
2018-04-01T12:11:20.773Z,90788.75
2018-04-01T12:13:47.033Z,90819.34
2018-04-01T12:16:13.388Z,90832.82
2018-04-01T12:18:39.462Z,90828.75
2018-04-01T12:21:05.490Z,90845.25
2018-04-01T12:23:31.628Z,90846.71
2018-04-01T12:25:57.820Z,90853.42
2018-04-01T12:28:23.848Z,90820.41
2018-04-01T12:30:49.875Z,90811.76
2018-04-01T12:33:16.014Z,90802.14
2018-04-01T12:35:42.080Z,90801.97
2018-04-01T12:38:08.150Z,90799.91
2018-04-01T12:40:34.220Z,90793.48
2018-04-01T12:43:00.392Z,90798.23
2018-04-01T12:45:26.424Z,90784.89
2018-04-01T12:47:52.588Z,90781.56
2018-04-01T12:50:18.862Z,90772.95
2018-04-01T12:52:44.928Z,90774.24
2018-04-01T12:55:10.973Z,90775.98
2018-04-01T12:57:37.046Z,90776.02
2018-04-01T13:00:03.425Z,90772.34
2018-04-01T13:02:29.629Z,90767.64
2018-04-01T13:04:55.704Z,90760.91
2018-04-01T13:07:21.770Z,90761.69
2018-04-01T13:09:47.961Z,90762.29
2018-04-01T13:12:14.094Z,90764.58
2018-04-01T13:14:40.160Z,90764.71
2018-04-01T13:17:06.316Z,90764.17
2018-04-01T13:19:32.443Z,90765.36
2018-04-01T13:21:58.584Z,90764.69
2018-04-01T13:24:24.608Z,90774.44
2018-04-01T13:26:50.640Z,90779.13
2018-04-01T13:29:16.783Z,90785.89
2018-04-01T13:31:42.817Z,90801.96
2018-04-01T13:34:08.854Z,90850.77
2018-04-01T13:36:34.905Z,90860.27
2018-04-01T13:39:01.104Z,90885.43
2018-04-01T13:41:27.154Z,90894.25
2018-04-01T13:43:53.335Z,90895.92
2018-04-01T13:46:19.361Z,90899.22
2018-04-01T13:48:45.384Z,90899.20
2018-04-01T13:51:11.439Z,90899.47
2018-04-01T13:53:37.458Z,90895.05
2018-04-01T13:56:03.523Z,90888.99
2018-04-01T13:58:29.599Z,90890.38
2018-04-01T14:00:55.692Z,90895.75
2018-04-01T14:03:21.836Z,90894.45
2018-04-01T14:05:47.977Z,90903.60
2018-04-01T14:08:14.129Z,90912.48
2018-04-01T14:10:40.324Z,90915.10
2018-04-01T14:13:06.368Z,90921.44
2018-04-01T14:15:37.493Z,90917.47
2018-04-01T14:18:04.952Z,90924.38
2018-04-01T14:20:31.037Z,90923.77
2018-04-01T14:22:57.094Z,90922.60
2018-04-01T14:25:23.124Z,90918.22
2018-04-01T14:27:49.296Z,90917.37
2018-04-01T14:30:16.302Z,90912.83
2018-04-01T14:32:42.332Z,90901.55
2018-04-01T14:35:08.415Z,90892.84
2018-04-01T14:37:34.485Z,90900.14
2018-04-01T14:40:00.519Z,90889.78
2018-04-01T14:42:26.604Z,90885.42
2018-04-01T14:44:52.743Z,90885.08
2018-04-01T14:47:18.768Z,90874.11
2018-04-01T14:49:44.894Z,90862.28
2018-04-01T14:52:10.917Z,90851.69
2018-04-01T14:54:37.033Z,90850.11
2018-04-01T14:57:03.050Z,90850.06
2018-04-01T14:59:29.077Z,90849.77
2018-04-01T15:01:55.185Z,90847.43
2018-04-01T15:04:21.482Z,90856.84
2018-04-01T15:06:47.619Z,90858.14
2018-04-01T15:09:13.973Z,90869.87
2018-04-01T15:11:40.089Z,90873.05
2018-04-01T15:14:06.112Z,90878.50
2018-04-01T15:16:32.172Z,90879.34
2018-04-01T15:18:58.309Z,90890.74
2018-04-01T15:21:24.330Z,90893.05
2018-04-01T15:23:50.384Z,90937.48
2018-04-01T15:26:16.409Z,90970.60
2018-04-01T15:28:42.473Z,90954.84
2018-04-01T15:31:08.674Z,90982.55
2018-04-01T15:33:34.856Z,90977.59
2018-04-01T15:36:00.900Z,90996.23
2018-04-01T15:38:26.967Z,91009.28
2018-04-01T15:40:53.013Z,91015.37
2018-04-01T15:43:19.156Z,91019.27
2018-04-01T15:45:45.220Z,91015.34
2018-04-01T15:48:11.260Z,91023.41
2018-04-01T15:50:37.302Z,91015.22
2018-04-01T15:53:03.454Z,91015.08
2018-04-01T15:55:29.530Z,91016.67
2018-04-01T15:57:55.635Z,91019.13
2018-04-01T16:00:21.705Z,91016.99
2018-04-01T16:02:48.101Z,91015.44
2018-04-01T16:05:14.121Z,91019.39
2018-04-01T16:07:40.373Z,91024.47
2018-04-01T16:10:06.402Z,91017.06
2018-04-01T16:12:32.440Z,91014.50
2018-04-01T16:14:58.638Z,91014.10
2018-04-01T16:17:25.820Z,91011.31
2018-04-01T16:19:51.853Z,91005.77
2018-04-01T16:22:20.958Z,90997.89
2018-04-01T16:24:46.991Z,90988.08
2018-04-01T16:27:13.017Z,90987.64
2018-04-01T16:29:39.096Z,90980.95
2018-04-01T16:32:05.174Z,90965.35
2018-04-01T16:34:31.209Z,90963.31
2018-04-01T16:36:58.226Z,90950.46
2018-04-01T16:39:24.453Z,90948.99
2018-04-01T16:41:50.688Z,90953.39
2018-04-01T16:44:16.968Z,90957.31
2018-04-01T16:46:43.041Z,90952.25
2018-04-01T16:49:09.061Z,90955.97
2018-04-01T16:51:35.157Z,90948.31
2018-04-01T16:54:01.295Z,90953.66
2018-04-01T16:56:27.436Z,90952.32
2018-04-01T16:58:53.453Z,90957.88
2018-04-01T17:01:19.485Z,90948.95
2018-04-01T17:03:45.539Z,90964.13
2018-04-01T17:06:14.123Z,90963.02
2018-04-01T17:08:40.361Z,90966.77
2018-04-01T17:11:06.399Z,90975.44
2018-04-01T17:13:32.517Z,90992.18
2018-04-01T17:15:58.550Z,90989.05
2018-04-01T17:18:24.850Z,90997.05
2018-04-01T17:20:51.731Z,90995.24
2018-04-01T17:23:17.798Z,91003.45
2018-04-01T17:25:43.960Z,91008.82
2018-04-01T17:28:10.094Z,91011.95
2018-04-01T17:30:36.199Z,91010.14
2018-04-01T17:33:02.365Z,91011.01
2018-04-01T17:35:28.403Z,91009.84
2018-04-01T17:37:54.425Z,91019.31
2018-04-01T17:40:20.585Z,91017.84
2018-04-01T17:42:46.612Z,91023.58
2018-04-01T17:45:12.690Z,91034.68
2018-04-01T17:47:39.057Z,91033.96
2018-04-01T17:50:05.118Z,91031.70
2018-04-01T17:52:31.136Z,91035.69
2018-04-01T17:54:57.173Z,91036.19
2018-04-01T17:59:49.575Z,91041.33
2018-04-01T18:02:15.614Z,91034.72
2018-04-01T18:04:41.662Z,91047.16
2018-04-01T18:07:10.564Z,91046.45
2018-04-01T18:09:36.609Z,91047.45
2018-04-01T18:12:02.647Z,91054.48
2018-04-01T18:14:28.831Z,91065.17
2018-04-01T18:16:54.862Z,91059.53
2018-04-01T18:19:21.072Z,91066.22
2018-04-01T18:21:47.428Z,91071.29
2018-04-01T18:24:13.843Z,91079.81
2018-04-01T18:26:40.155Z,91089.77
2018-04-01T18:29:06.292Z,91097.05
2018-04-01T18:31:32.323Z,91115.83
2018-04-01T18:33:58.349Z,91099.44
2018-04-01T18:36:24.478Z,91121.74
2018-04-01T18:38:50.507Z,91126.60
2018-04-01T18:41:16.598Z,91129.63
2018-04-01T18:43:42.657Z,91133.12
2018-04-01T18:46:08.665Z,91133.22
2018-04-01T18:48:34.677Z,91132.30
2018-04-01T18:51:00.901Z,91132.51
2018-04-01T18:53:26.932Z,91137.29
2018-04-01T18:55:52.976Z,91144.53
2018-04-01T18:58:19.209Z,91146.65
2018-04-01T19:00:45.233Z,91152.77
2018-04-01T19:03:11.318Z,91157.28
2018-04-01T19:05:37.336Z,91158.88
2018-04-01T19:08:03.364Z,91169.30
2018-04-01T19:10:29.600Z,91177.67
2018-04-01T19:12:55.759Z,91190.13
2018-04-01T19:15:21.848Z,91191.03
2018-04-01T19:17:48.322Z,91197.70
2018-04-01T19:20:14.686Z,91191.00
2018-04-01T19:22:40.957Z,91212.02
2018-04-01T19:25:07.422Z,91200.67
2018-04-01T19:27:33.704Z,91205.80
2018-04-01T19:30:00.002Z,91204.31
2018-04-01T19:32:26.328Z,91203.66
2018-04-01T19:34:52.619Z,91212.73
2018-04-01T19:37:18.898Z,91189.38
2018-04-01T19:39:45.364Z,91182.11
2018-04-01T19:42:11.633Z,91193.29
2018-04-01T19:44:37.917Z,91190.75
2018-04-01T19:47:04.312Z,91181.83
2018-04-01T19:49:30.621Z,91182.75
2018-04-01T19:51:56.912Z,91191.35
2018-04-01T19:54:23.258Z,91185.95
2018-04-01T19:56:49.519Z,91191.66
2018-04-01T19:59:15.941Z,91181.05
2018-04-01T20:01:42.335Z,91187.66
2018-04-01T20:04:08.598Z,91192.88
2018-04-01T20:06:34.884Z,91195.11
2018-04-01T20:09:04.308Z,91201.86
2018-04-01T20:11:30.705Z,91203.19
2018-04-01T20:13:57.107Z,91199.81
2018-04-01T20:16:23.381Z,91202.52
2018-04-01T20:18:49.648Z,91209.61
2018-04-01T20:21:15.969Z,91208.38
2018-04-01T20:23:42.241Z,91208.56
2018-04-01T20:26:08.536Z,91215.04
2018-04-01T20:28:34.816Z,91221.02
2018-04-01T20:31:01.076Z,91223.01
2018-04-01T20:33:27.591Z,91225.53
2018-04-01T20:35:53.868Z,91228.05
2018-04-01T20:38:20.322Z,91237.06
2018-04-01T20:40:46.601Z,91241.70
2018-04-01T20:43:12.916Z,91250.25
2018-04-01T20:45:39.322Z,91257.98
2018-04-01T20:48:05.733Z,91256.83
2018-04-01T20:50:32.000Z,91260.42
2018-04-01T20:52:58.693Z,91267.34
2018-04-01T20:55:24.975Z,91268.95
2018-04-01T20:57:51.390Z,91268.06
2018-04-01T21:00:17.659Z,91264.86
2018-04-01T21:02:43.923Z,91264.55
2018-04-01T21:05:10.245Z,91264.33
2018-04-01T21:07:36.569Z,91277.30
2018-04-01T21:10:02.868Z,91276.19
2018-04-01T21:12:29.392Z,91288.00
2018-04-01T21:14:55.679Z,91277.05
2018-04-01T21:17:22.043Z,91275.91
2018-04-01T21:19:48.308Z,91274.22
2018-04-01T21:22:14.611Z,91282.03
2018-04-01T21:24:40.952Z,91279.01
2018-04-01T21:27:07.270Z,91278.48
2018-04-01T21:29:33.532Z,91269.39
2018-04-01T21:31:59.886Z,91270.64
2018-04-01T21:34:26.471Z,91274.91
2018-04-01T21:36:52.762Z,91274.37
2018-04-01T21:39:19.081Z,91283.99
2018-04-01T21:41:45.873Z,91286.57
2018-04-01T21:44:12.174Z,91282.92
2018-04-01T21:46:38.432Z,91291.53
2018-04-01T21:49:04.713Z,91295.50
2018-04-01T21:51:31.062Z,91303.03
2018-04-01T21:53:58.236Z,91301.40
2018-04-01T21:56:24.501Z,91306.36
2018-04-01T21:58:50.854Z,91306.52
2018-04-01T22:01:19.687Z,91320.70
2018-04-01T22:03:46.128Z,91321.64
2018-04-01T22:06:12.470Z,91324.31
2018-04-01T22:08:39.139Z,91328.84
2018-04-01T22:11:05.417Z,91333.98
2018-04-01T22:13:31.740Z,91333.00
2018-04-01T22:15:58.003Z,91332.38
2018-04-01T22:18:24.485Z,91326.20
2018-04-01T22:20:50.801Z,91344.88
2018-04-01T22:23:17.115Z,91340.33
2018-04-01T22:25:43.437Z,91345.59
2018-04-01T22:28:09.777Z,91349.77
2018-04-01T22:30:36.035Z,91345.77
2018-04-01T22:33:02.308Z,91352.25
2018-04-01T22:35:28.976Z,91353.65
2018-04-01T22:37:56.476Z,91355.01
2018-04-01T22:40:22.736Z,91360.42
2018-04-01T22:42:49.014Z,91360.88
2018-04-01T22:45:15.329Z,91365.16
2018-04-01T22:47:41.657Z,91370.80
2018-04-01T22:50:07.967Z,91355.69
2018-04-01T22:52:34.525Z,91371.79
2018-04-01T22:55:00.798Z,91368.02
2018-04-01T22:57:27.060Z,91378.58
2018-04-01T22:59:53.395Z,91376.77
2018-04-01T23:02:19.904Z,91369.70
2018-04-01T23:04:46.258Z,91378.96
2018-04-01T23:07:12.644Z,91382.18
2018-04-01T23:09:39.395Z,91387.28
2018-04-01T23:12:05.752Z,91379.51
2018-04-01T23:14:32.046Z,91390.92
2018-04-01T23:16:58.305Z,91393.87
2018-04-01T23:19:24.817Z,91394.80
2018-04-01T23:21:50.892Z,91403.00
2018-04-01T23:24:17.224Z,91407.33
2018-04-01T23:26:43.542Z,91406.58
2018-04-01T23:29:09.810Z,91404.42
2018-04-01T23:31:36.085Z,91405.77
2018-04-01T23:34:02.594Z,91404.98
2018-04-01T23:36:28.976Z,91406.95
2018-04-01T23:38:55.452Z,91417.08
2018-04-01T23:41:21.728Z,91416.39
2018-04-01T23:43:47.985Z,91421.23
2018-04-01T23:46:14.279Z,91415.02
2018-04-01T23:48:40.580Z,91419.25
2018-04-01T23:51:06.853Z,91423.93
2018-04-01T23:53:33.433Z,91420.47
2018-04-01T23:55:59.701Z,91416.47
2018-04-01T23:58:26.065Z,91424.23
